Aviation Digital Data Service (ADDS)

Output produced by METARs form (1015 UTC 25 January 2015)
found at http://aviationweather.gov/adds/metars/
 
METAR text: KBFM 250953Z AUTO 26003KT 10SM CLR 04/03 A3007 RMK AO2 SLP182 T00440028
Conditions at: KBFM (MOBILE/BROOKLEY , AL, US) observed 0953 UTC 25 January 2015
Temperature: 4.4°C (40°F)
Dewpoint: 2.8°C (37°F) [RH = 89%]
Pressure (altimeter): 30.07 inches Hg (1018.4 mb)
[Sea-level pressure: 1018.2 mb]
Winds: from the W (260 degrees) at 3 MPH (3 knots; 1.6 m/s)
Visibility: 10 or more miles (16+ km)
Ceiling: at least 12,000 feet AGL
Clouds: sky clear below 12,000 feet AGL
Weather: automated observation with no human augmentation;
there may or may not be significant weather present at this time